Abingdon, Illinois
Current Conditions -  °F | °C
As of 12:15 PM on Thursday 18 Dec 2014 (Local Time) from KGBG Reporting Station
Scattered Clouds Scattered Clouds  
Wind Chill: 28°   Ceiling: Unl
Heat Index: 28°   Visibility: 10mi
Dew Point: 20°   Wind: 0mph
Humidity: 73%   Direction: NA
Pressure: 30.26"   Gusts: NA
Location:  40.8°N, 90.4°W
Report Text: KGBG 181815Z AUTO 00000KT 10SM SCT075 SCT085 M02/M07 A3026 RMK AO2 T10241066
Loading
Personal Weather Stations






























Interactive Weather Map New forecast layout! Learn more

10-Day Weather Forecast

Advertisements
Track Severe Weather on mobile